sensor_id;sensor_type;location;lat;lon;timestamp;P1;durP1;ratioP1;P2;durP2;ratioP2
29210;SDS011;16250;49.932;10.980;2023-01-10T00:02:17;5.63;;;5.43;;
29210;SDS011;16250;49.932;10.980;2023-01-10T00:04:43;4.03;;;3.92;;
29210;SDS011;16250;49.932;10.980;2023-01-10T00:07:08;3.58;;;3.47;;
29210;SDS011;16250;49.932;10.980;2023-01-10T00:09:34;3.33;;;3.22;;
29210;SDS011;16250;49.932;10.980;2023-01-10T00:11:59;3.20;;;3.10;;
29210;SDS011;16250;49.932;10.980;2023-01-10T00:14:43;4.55;;;4.43;;
29210;SDS011;16250;49.932;10.980;2023-01-10T00:17:09;2.90;;;2.80;;
29210;SDS011;16250;49.932;10.980;2023-01-10T00:19:34;4.40;;;4.30;;
29210;SDS011;16250;49.932;10.980;2023-01-10T00:22:00;3.45;;;3.35;;
29210;SDS011;16250;49.932;10.980;2023-01-10T00:24:29;3.45;;;3.35;;
29210;SDS011;16250;49.932;10.980;2023-01-10T00:26:55;4.75;;;4.63;;
29210;SDS011;16250;49.932;10.980;2023-01-10T00:29:21;3.88;;;3.78;;
29210;SDS011;16250;49.932;10.980;2023-01-10T00:31:51;3.55;;;3.45;;
29210;SDS011;16250;49.932;10.980;2023-01-10T00:34:17;3.95;;;3.85;;
29210;SDS011;16250;49.932;10.980;2023-01-10T00:36:42;4.25;;;4.15;;
29210;SDS011;16250;49.932;10.980;2023-01-10T00:39:09;4.43;;;4.32;;
29210;SDS011;16250;49.932;10.980;2023-01-10T00:41:35;3.53;;;3.42;;
29210;SDS011;16250;49.932;10.980;2023-01-10T00:44:19;4.00;;;3.90;;
29210;SDS011;16250;49.932;10.980;2023-01-10T00:46:44;3.55;;;3.45;;
29210;SDS011;16250;49.932;10.980;2023-01-10T00:49:10;3.85;;;3.75;;
29210;SDS011;16250;49.932;10.980;2023-01-10T00:51:38;4.10;;;4.00;;
29210;SDS011;16250;49.932;10.980;2023-01-10T00:54:03;3.35;;;3.25;;
29210;SDS011;16250;49.932;10.980;2023-01-10T00:56:29;5.50;;;5.30;;
29210;SDS011;16250;49.932;10.980;2023-01-10T00:58:54;3.42;;;3.33;;
29210;SDS011;16250;49.932;10.980;2023-01-10T01:01:20;4.25;;;4.15;;
29210;SDS011;16250;49.932;10.980;2023-01-10T01:03:46;3.88;;;3.78;;
29210;SDS011;16250;49.932;10.980;2023-01-10T01:06:11;3.40;;;3.30;;
29210;SDS011;16250;49.932;10.980;2023-01-10T01:08:37;4.22;;;4.13;;
29210;SDS011;16250;49.932;10.980;2023-01-10T01:11:02;5.63;;;5.43;;
29210;SDS011;16250;49.932;10.980;2023-01-10T01:13:28;5.53;;;5.32;;
29210;SDS011;16250;49.932;10.980;2023-01-10T01:15:56;3.80;;;3.70;;
29210;SDS011;16250;49.932;10.980;2023-01-10T01:18:23;4.13;;;4.03;;
29210;SDS011;16250;49.932;10.980;2023-01-10T01:20:51;4.53;;;4.43;;
29210;SDS011;16250;49.932;10.980;2023-01-10T01:23:18;3.50;;;3.40;;
29210;SDS011;16250;49.932;10.980;2023-01-10T01:25:44;4.32;;;4.22;;
29210;SDS011;16250;49.932;10.980;2023-01-10T01:28:13;4.72;;;4.57;;
29210;SDS011;16250;49.932;10.980;2023-01-10T01:30:39;4.25;;;4.15;;
29210;SDS011;16250;49.932;10.980;2023-01-10T01:33:04;3.97;;;3.88;;
29210;SDS011;16250;49.932;10.980;2023-01-10T01:35:30;5.30;;;5.10;;
29210;SDS011;16250;49.932;10.980;2023-01-10T01:37:57;2.95;;;2.85;;
29210;SDS011;16250;49.932;10.980;2023-01-10T01:40:23;8.48;;;8.07;;
29210;SDS011;16250;49.932;10.980;2023-01-10T01:42:49;5.03;;;4.85;;
29210;SDS011;16250;49.932;10.980;2023-01-10T01:47:54;3.20;;;3.00;;
29210;SDS011;16250;49.932;10.980;2023-01-10T01:55:57;2.90;;;2.80;;
29210;SDS011;16250;49.932;10.980;2023-01-10T01:58:38;2.55;;;2.45;;
29210;SDS011;16250;49.932;10.980;2023-01-10T02:01:09;2.88;;;2.78;;
29210;SDS011;16250;49.932;10.980;2023-01-10T02:03:36;2.33;;;2.22;;
29210;SDS011;16250;49.932;10.980;2023-01-10T02:06:02;2.67;;;2.58;;
29210;SDS011;16250;49.932;10.980;2023-01-10T02:08:28;4.05;;;3.50;;
29210;SDS011;16250;49.932;10.980;2023-01-10T02:10:57;2.85;;;2.75;;
29210;SDS011;16250;49.932;10.980;2023-01-10T02:13:27;3.30;;;3.20;;
29210;SDS011;16250;49.932;10.980;2023-01-10T02:15:54;3.83;;;3.72;;
29210;SDS011;16250;49.932;10.980;2023-01-10T02:18:20;2.63;;;2.53;;
29210;SDS011;16250;49.932;10.980;2023-01-10T02:32:41;3.40;;;3.30;;
29210;SDS011;16250;49.932;10.980;2023-01-10T02:44:21;4.03;;;3.92;;
29210;SDS011;16250;49.932;10.980;2023-01-10T02:46:54;3.38;;;3.28;;
29210;SDS011;16250;49.932;10.980;2023-01-10T02:49:20;3.38;;;3.28;;
29210;SDS011;16250;49.932;10.980;2023-01-10T02:51:46;3.05;;;2.95;;
29210;SDS011;16250;49.932;10.980;2023-01-10T02:54:15;2.50;;;2.40;;
29210;SDS011;16250;49.932;10.980;2023-01-10T02:57:00;3.50;;;3.40;;
29210;SDS011;16250;49.932;10.980;2023-01-10T03:05:51;2.67;;;2.58;;
29210;SDS011;16250;49.932;10.980;2023-01-10T03:11:12;3.20;;;3.10;;
29210;SDS011;16250;49.932;10.980;2023-01-10T03:13:56;2.97;;;2.88;;
29210;SDS011;16250;49.932;10.980;2023-01-10T03:16:26;3.10;;;3.00;;
29210;SDS011;16250;49.932;10.980;2023-01-10T03:19:02;4.18;;;4.07;;
29210;SDS011;16250;49.932;10.980;2023-01-10T03:21:31;3.50;;;3.40;;
29210;SDS011;16250;49.932;10.980;2023-01-10T03:24:02;3.72;;;3.63;;
29210;SDS011;16250;49.932;10.980;2023-01-10T03:26:36;3.45;;;3.35;;
29210;SDS011;16250;49.932;10.980;2023-01-10T03:29:14;2.88;;;2.78;;
29210;SDS011;16250;49.932;10.980;2023-01-10T03:31:47;3.38;;;3.28;;
29210;SDS011;16250;49.932;10.980;2023-01-10T03:34:20;2.97;;;2.88;;
29210;SDS011;16250;49.932;10.980;2023-01-10T03:36:51;2.95;;;2.85;;
29210;SDS011;16250;49.932;10.980;2023-01-10T03:39:28;3.80;;;3.70;;
29210;SDS011;16250;49.932;10.980;2023-01-10T03:42:04;2.92;;;2.83;;
29210;SDS011;16250;49.932;10.980;2023-01-10T03:47:23;4.47;;;4.38;;
29210;SDS011;16250;49.932;10.980;2023-01-10T03:50:12;3.42;;;3.33;;
29210;SDS011;16250;49.932;10.980;2023-01-10T03:52:41;2.97;;;2.88;;
29210;SDS011;16250;49.932;10.980;2023-01-10T03:55:09;3.40;;;3.30;;
29210;SDS011;16250;49.932;10.980;2023-01-10T03:57:39;3.30;;;3.20;;
29210;SDS011;16250;49.932;10.980;2023-01-10T04:00:07;3.00;;;2.90;;
29210;SDS011;16250;49.932;10.980;2023-01-10T04:02:33;4.25;;;4.05;;
29210;SDS011;16250;49.932;10.980;2023-01-10T04:04:58;3.22;;;3.13;;
29210;SDS011;16250;49.932;10.980;2023-01-10T04:07:24;2.50;;;2.40;;
29210;SDS011;16250;49.932;10.980;2023-01-10T04:09:50;3.38;;;3.28;;
29210;SDS011;16250;49.932;10.980;2023-01-10T04:12:16;2.75;;;2.65;;
29210;SDS011;16250;49.932;10.980;2023-01-10T04:14:42;3.30;;;3.20;;
29210;SDS011;16250;49.932;10.980;2023-01-10T04:17:10;3.00;;;2.90;;
29210;SDS011;16250;49.932;10.980;2023-01-10T04:19:37;3.25;;;3.15;;
29210;SDS011;16250;49.932;10.980;2023-01-10T04:22:02;3.30;;;3.20;;
29210;SDS011;16250;49.932;10.980;2023-01-10T04:24:29;2.90;;;2.80;;
29210;SDS011;16250;49.932;10.980;2023-01-10T04:26:55;2.22;;;2.13;;
29210;SDS011;16250;49.932;10.980;2023-01-10T04:29:21;2.95;;;2.83;;
29210;SDS011;16250;49.932;10.980;2023-01-10T04:31:46;1.90;;;1.80;;
29210;SDS011;16250;49.932;10.980;2023-01-10T04:34:12;2.05;;;1.98;;
29210;SDS011;16250;49.932;10.980;2023-01-10T04:36:38;1.98;;;1.98;;
29210;SDS011;16250;49.932;10.980;2023-01-10T04:39:03;2.42;;;2.33;;
29210;SDS011;16250;49.932;10.980;2023-01-10T04:41:29;2.50;;;2.40;;
29210;SDS011;16250;49.932;10.980;2023-01-10T04:43:55;2.40;;;2.30;;
29210;SDS011;16250;49.932;10.980;2023-01-10T04:46:21;2.38;;;2.28;;
29210;SDS011;16250;49.932;10.980;2023-01-10T04:48:46;2.25;;;2.13;;
29210;SDS011;16250;49.932;10.980;2023-01-10T04:51:12;2.03;;;2.03;;
29210;SDS011;16250;49.932;10.980;2023-01-10T04:53:37;2.30;;;2.20;;
29210;SDS011;16250;49.932;10.980;2023-01-10T04:56:07;4.40;;;4.10;;
29210;SDS011;16250;49.932;10.980;2023-01-10T04:58:34;2.78;;;2.67;;
29210;SDS011;16250;49.932;10.980;2023-01-10T05:01:08;2.70;;;2.50;;
29210;SDS011;16250;49.932;10.980;2023-01-10T05:03:35;1.80;;;1.70;;
29210;SDS011;16250;49.932;10.980;2023-01-10T05:06:01;1.85;;;1.85;;
29210;SDS011;16250;49.932;10.980;2023-01-10T05:08:27;2.47;;;2.30;;
29210;SDS011;16250;49.932;10.980;2023-01-10T05:10:52;2.35;;;2.25;;
29210;SDS011;16250;49.932;10.980;2023-01-10T05:13:18;3.42;;;3.33;;
29210;SDS011;16250;49.932;10.980;2023-01-10T05:15:43;1.77;;;1.77;;
29210;SDS011;16250;49.932;10.980;2023-01-10T05:18:09;3.58;;;3.38;;
29210;SDS011;16250;49.932;10.980;2023-01-10T05:20:35;2.33;;;2.22;;
29210;SDS011;16250;49.932;10.980;2023-01-10T05:23:00;2.10;;;2.10;;
29210;SDS011;16250;49.932;10.980;2023-01-10T05:25:26;2.67;;;2.58;;
29210;SDS011;16250;49.932;10.980;2023-01-10T05:27:51;2.20;;;2.10;;
29210;SDS011;16250;49.932;10.980;2023-01-10T05:30:17;2.05;;;2.03;;
29210;SDS011;16250;49.932;10.980;2023-01-10T05:32:43;5.18;;;2.70;;
29210;SDS011;16250;49.932;10.980;2023-01-10T05:35:08;2.25;;;2.15;;
29210;SDS011;16250;49.932;10.980;2023-01-10T05:37:34;3.00;;;2.90;;
29210;SDS011;16250;49.932;10.980;2023-01-10T05:40:00;2.45;;;2.35;;
29210;SDS011;16250;49.932;10.980;2023-01-10T05:42:25;2.40;;;2.30;;
29210;SDS011;16250;49.932;10.980;2023-01-10T05:44:51;2.25;;;1.90;;
29210;SDS011;16250;49.932;10.980;2023-01-10T05:47:16;2.38;;;2.28;;
29210;SDS011;16250;49.932;10.980;2023-01-10T05:49:42;2.20;;;2.10;;
29210;SDS011;16250;49.932;10.980;2023-01-10T05:52:07;2.63;;;2.53;;
29210;SDS011;16250;49.932;10.980;2023-01-10T05:54:33;3.00;;;2.90;;
29210;SDS011;16250;49.932;10.980;2023-01-10T05:56:58;2.72;;;2.63;;
29210;SDS011;16250;49.932;10.980;2023-01-10T05:59:24;2.47;;;2.38;;
29210;SDS011;16250;49.932;10.980;2023-01-10T06:01:49;3.50;;;3.40;;
29210;SDS011;16250;49.932;10.980;2023-01-10T06:04:15;2.75;;;2.65;;
29210;SDS011;16250;49.932;10.980;2023-01-10T06:06:41;6.80;;;2.97;;
29210;SDS011;16250;49.932;10.980;2023-01-10T06:09:06;4.32;;;2.03;;
29210;SDS011;16250;49.932;10.980;2023-01-10T06:11:32;2.45;;;2.35;;
29210;SDS011;16250;49.932;10.980;2023-01-10T06:14:00;2.25;;;2.17;;
29210;SDS011;16250;49.932;10.980;2023-01-10T06:16:26;2.00;;;2.00;;
29210;SDS011;16250;49.932;10.980;2023-01-10T06:18:52;9.30;;;2.90;;
29210;SDS011;16250;49.932;10.980;2023-01-10T06:21:17;2.75;;;2.65;;
29210;SDS011;16250;49.932;10.980;2023-01-10T06:23:43;2.50;;;2.40;;
29210;SDS011;16250;49.932;10.980;2023-01-10T06:26:08;3.03;;;2.92;;
29210;SDS011;16250;49.932;10.980;2023-01-10T06:28:34;2.40;;;2.30;;
29210;SDS011;16250;49.932;10.980;2023-01-10T06:31:00;2.45;;;2.35;;
29210;SDS011;16250;49.932;10.980;2023-01-10T06:33:25;2.10;;;2.10;;
29210;SDS011;16250;49.932;10.980;2023-01-10T06:35:51;3.58;;;3.47;;
29210;SDS011;16250;49.932;10.980;2023-01-10T06:38:16;2.15;;;2.13;;
29210;SDS011;16250;49.932;10.980;2023-01-10T06:40:42;2.40;;;2.30;;
29210;SDS011;16250;49.932;10.980;2023-01-10T06:43:08;2.20;;;2.10;;
29210;SDS011;16250;49.932;10.980;2023-01-10T06:45:33;2.78;;;2.67;;
29210;SDS011;16250;49.932;10.980;2023-01-10T06:47:59;2.70;;;2.60;;
29210;SDS011;16250;49.932;10.980;2023-01-10T06:50:25;2.47;;;2.38;;
29210;SDS011;16250;49.932;10.980;2023-01-10T06:52:54;2.30;;;2.20;;
29210;SDS011;16250;49.932;10.980;2023-01-10T06:55:21;2.95;;;2.85;;
29210;SDS011;16250;49.932;10.980;2023-01-10T06:57:47;4.03;;;3.83;;
29210;SDS011;16250;49.932;10.980;2023-01-10T07:00:12;2.42;;;2.33;;
29210;SDS011;16250;49.932;10.980;2023-01-10T07:02:38;2.38;;;2.28;;
29210;SDS011;16250;49.932;10.980;2023-01-10T07:05:04;2.50;;;2.40;;
29210;SDS011;16250;49.932;10.980;2023-01-10T07:07:30;1.90;;;1.90;;
29210;SDS011;16250;49.932;10.980;2023-01-10T07:09:55;1.80;;;1.80;;
29210;SDS011;16250;49.932;10.980;2023-01-10T07:12:22;2.58;;;2.47;;
29210;SDS011;16250;49.932;10.980;2023-01-10T07:14:47;1.75;;;1.75;;
29210;SDS011;16250;49.932;10.980;2023-01-10T07:17:13;2.00;;;2.00;;
29210;SDS011;16250;49.932;10.980;2023-01-10T07:19:38;2.78;;;2.67;;
29210;SDS011;16250;49.932;10.980;2023-01-10T07:22:04;1.58;;;1.58;;
29210;SDS011;16250;49.932;10.980;2023-01-10T07:24:29;1.90;;;1.90;;
29210;SDS011;16250;49.932;10.980;2023-01-10T07:26:55;2.72;;;2.63;;
29210;SDS011;16250;49.932;10.980;2023-01-10T07:29:20;2.55;;;2.45;;
29210;SDS011;16250;49.932;10.980;2023-01-10T07:31:46;2.25;;;2.17;;
29210;SDS011;16250;49.932;10.980;2023-01-10T07:34:11;2.03;;;2.03;;
29210;SDS011;16250;49.932;10.980;2023-01-10T07:36:37;2.63;;;2.47;;
29210;SDS011;16250;49.932;10.980;2023-01-10T07:39:03;2.53;;;2.40;;
29210;SDS011;16250;49.932;10.980;2023-01-10T07:41:29;2.53;;;2.35;;
29210;SDS011;16250;49.932;10.980;2023-01-10T07:43:54;2.17;;;2.13;;
29210;SDS011;16250;49.932;10.980;2023-01-10T07:46:20;1.65;;;1.65;;
29210;SDS011;16250;49.932;10.980;2023-01-10T07:48:45;2.42;;;2.33;;
29210;SDS011;16250;49.932;10.980;2023-01-10T07:51:13;2.35;;;2.28;;
29210;SDS011;16250;49.932;10.980;2023-01-10T07:53:38;1.92;;;1.92;;
29210;SDS011;16250;49.932;10.980;2023-01-10T07:56:04;2.40;;;2.30;;
29210;SDS011;16250;49.932;10.980;2023-01-10T07:58:30;2.08;;;2.03;;
29210;SDS011;16250;49.932;10.980;2023-01-10T08:01:00;1.83;;;1.83;;
29210;SDS011;16250;49.932;10.980;2023-01-10T08:03:27;2.97;;;2.88;;
29210;SDS011;16250;49.932;10.980;2023-01-10T08:06:01;2.15;;;2.13;;
29210;SDS011;16250;49.932;10.980;2023-01-10T08:08:28;1.80;;;1.80;;
29210;SDS011;16250;49.932;10.980;2023-01-10T08:10:55;2.28;;;2.20;;
29210;SDS011;16250;49.932;10.980;2023-01-10T08:13:21;3.03;;;2.92;;
29210;SDS011;16250;49.932;10.980;2023-01-10T08:15:47;2.40;;;2.30;;
29210;SDS011;16250;49.932;10.980;2023-01-10T08:18:16;2.15;;;2.10;;
29210;SDS011;16250;49.932;10.980;2023-01-10T08:20:43;2.40;;;2.30;;
29210;SDS011;16250;49.932;10.980;2023-01-10T08:23:11;2.92;;;2.83;;
29210;SDS011;16250;49.932;10.980;2023-01-10T08:25:36;2.28;;;2.17;;
29210;SDS011;16250;49.932;10.980;2023-01-10T08:28:02;1.95;;;1.95;;
29210;SDS011;16250;49.932;10.980;2023-01-10T08:30:27;1.42;;;1.42;;
29210;SDS011;16250;49.932;10.980;2023-01-10T08:32:53;1.20;;;1.20;;
29210;SDS011;16250;49.932;10.980;2023-01-10T08:35:18;4.85;;;2.22;;
29210;SDS011;16250;49.932;10.980;2023-01-10T08:37:44;1.65;;;1.65;;
29210;SDS011;16250;49.932;10.980;2023-01-10T08:40:11;1.60;;;1.60;;
29210;SDS011;16250;49.932;10.980;2023-01-10T08:42:37;2.72;;;2.63;;
29210;SDS011;16250;49.932;10.980;2023-01-10T08:45:02;1.77;;;1.77;;
29210;SDS011;16250;49.932;10.980;2023-01-10T08:47:29;1.75;;;1.75;;
29210;SDS011;16250;49.932;10.980;2023-01-10T08:49:54;2.00;;;2.00;;
29210;SDS011;16250;49.932;10.980;2023-01-10T08:52:20;1.95;;;1.95;;
29210;SDS011;16250;49.932;10.980;2023-01-10T08:54:45;1.90;;;1.90;;
29210;SDS011;16250;49.932;10.980;2023-01-10T08:57:11;1.90;;;1.90;;
29210;SDS011;16250;49.932;10.980;2023-01-10T08:59:36;2.28;;;2.17;;
29210;SDS011;16250;49.932;10.980;2023-01-10T09:02:02;2.20;;;2.10;;
29210;SDS011;16250;49.932;10.980;2023-01-10T09:04:28;8.40;;;3.85;;
29210;SDS011;16250;49.932;10.980;2023-01-10T09:06:55;1.90;;;1.90;;
29210;SDS011;16250;49.932;10.980;2023-01-10T09:09:21;2.38;;;2.28;;
29210;SDS011;16250;49.932;10.980;2023-01-10T09:11:46;1.85;;;1.75;;
29210;SDS011;16250;49.932;10.980;2023-01-10T09:14:12;2.03;;;2.03;;
29210;SDS011;16250;49.932;10.980;2023-01-10T09:16:37;5.10;;;4.55;;
29210;SDS011;16250;49.932;10.980;2023-01-10T09:19:03;7.63;;;6.03;;
29210;SDS011;16250;49.932;10.980;2023-01-10T09:21:29;3.15;;;2.88;;
29210;SDS011;16250;49.932;10.980;2023-01-10T09:23:55;4.65;;;3.92;;
29210;SDS011;16250;49.932;10.980;2023-01-10T09:26:20;10.90;;;4.63;;
29210;SDS011;16250;49.932;10.980;2023-01-10T09:28:46;3.92;;;3.72;;
29210;SDS011;16250;49.932;10.980;2023-01-10T09:31:13;3.58;;;3.38;;
29210;SDS011;16250;49.932;10.980;2023-01-10T09:33:38;1.70;;;1.70;;
29210;SDS011;16250;49.932;10.980;2023-01-10T09:36:06;1.88;;;1.88;;
29210;SDS011;16250;49.932;10.980;2023-01-10T09:38:32;2.80;;;2.70;;
29210;SDS011;16250;49.932;10.980;2023-01-10T09:43:43;1.60;;;1.60;;
29210;SDS011;16250;49.932;10.980;2023-01-10T09:49:43;1.73;;;1.73;;
29210;SDS011;16250;49.932;10.980;2023-01-10T09:52:15;2.33;;;2.22;;
29210;SDS011;16250;49.932;10.980;2023-01-10T09:54:46;1.50;;;1.50;;
29210;SDS011;16250;49.932;10.980;2023-01-10T09:57:17;2.80;;;2.42;;
29210;SDS011;16250;49.932;10.980;2023-01-10T09:59:45;3.70;;;3.50;;
29210;SDS011;16250;49.932;10.980;2023-01-10T10:02:21;1.52;;;1.52;;
29210;SDS011;16250;49.932;10.980;2023-01-10T10:04:58;1.38;;;1.38;;
29210;SDS011;16250;49.932;10.980;2023-01-10T10:07:42;1.83;;;1.75;;
29210;SDS011;16250;49.932;10.980;2023-01-10T10:10:15;2.10;;;2.00;;
29210;SDS011;16250;49.932;10.980;2023-01-10T10:17:46;1.88;;;1.77;;
29210;SDS011;16250;49.932;10.980;2023-01-10T10:25:59;2.30;;;2.10;;
29210;SDS011;16250;49.932;10.980;2023-01-10T10:36:39;5.88;;;2.85;;
29210;SDS011;16250;49.932;10.980;2023-01-10T10:39:13;3.58;;;2.33;;
29210;SDS011;16250;49.932;10.980;2023-01-10T10:41:43;2.42;;;2.22;;
29210;SDS011;16250;49.932;10.980;2023-01-10T10:44:21;1.23;;;1.23;;
29210;SDS011;16250;49.932;10.980;2023-01-10T10:46:52;3.70;;;2.33;;
29210;SDS011;16250;49.932;10.980;2023-01-10T10:49:41;1.00;;;1.00;;
29210;SDS011;16250;49.932;10.980;2023-01-10T10:52:24;1.10;;;1.10;;
29210;SDS011;16250;49.932;10.980;2023-01-10T10:54:54;1.10;;;1.10;;
29210;SDS011;16250;49.932;10.980;2023-01-10T10:57:20;2.30;;;1.13;;
29210;SDS011;16250;49.932;10.980;2023-01-10T10:59:49;1.35;;;1.35;;
29210;SDS011;16250;49.932;10.980;2023-01-10T11:02:18;1.17;;;1.17;;
29210;SDS011;16250;49.932;10.980;2023-01-10T11:04:50;10.77;;;2.03;;
29210;SDS011;16250;49.932;10.980;2023-01-10T11:07:20;0.90;;;0.90;;
29210;SDS011;16250;49.932;10.980;2023-01-10T11:09:46;0.70;;;0.70;;
29210;SDS011;16250;49.932;10.980;2023-01-10T11:12:18;2.05;;;1.42;;
29210;SDS011;16250;49.932;10.980;2023-01-10T11:14:49;3.72;;;3.47;;
29210;SDS011;16250;49.932;10.980;2023-01-10T11:17:26;0.80;;;0.80;;
29210;SDS011;16250;49.932;10.980;2023-01-10T11:20:00;3.35;;;1.75;;
29210;SDS011;16250;49.932;10.980;2023-01-10T11:22:27;1.00;;;1.00;;
29210;SDS011;16250;49.932;10.980;2023-01-10T11:24:58;1.58;;;1.30;;
29210;SDS011;16250;49.932;10.980;2023-01-10T11:27:27;1.00;;;1.00;;
29210;SDS011;16250;49.932;10.980;2023-01-10T11:30:01;1.30;;;1.30;;
29210;SDS011;16250;49.932;10.980;2023-01-10T11:32:33;0.90;;;0.90;;
29210;SDS011;16250;49.932;10.980;2023-01-10T11:35:05;1.42;;;1.33;;
29210;SDS011;16250;49.932;10.980;2023-01-10T11:37:43;0.82;;;0.82;;
29210;SDS011;16250;49.932;10.980;2023-01-10T11:40:55;6.75;;;1.60;;
29210;SDS011;16250;49.932;10.980;2023-01-10T11:46:03;0.60;;;0.60;;
29210;SDS011;16250;49.932;10.980;2023-01-10T11:49:01;1.08;;;1.08;;
29210;SDS011;16250;49.932;10.980;2023-01-10T11:51:38;0.80;;;0.80;;
29210;SDS011;16250;49.932;10.980;2023-01-10T11:54:10;2.65;;;2.20;;
29210;SDS011;16250;49.932;10.980;2023-01-10T11:56:40;0.50;;;0.50;;
29210;SDS011;16250;49.932;10.980;2023-01-10T11:59:16;0.50;;;0.50;;
29210;SDS011;16250;49.932;10.980;2023-01-10T12:01:47;9.27;;;1.00;;
29210;SDS011;16250;49.932;10.980;2023-01-10T12:04:19;3.30;;;2.00;;
29210;SDS011;16250;49.932;10.980;2023-01-10T12:06:50;4.00;;;2.15;;
29210;SDS011;16250;49.932;10.980;2023-01-10T12:12:51;1.33;;;1.25;;
29210;SDS011;16250;49.932;10.980;2023-01-10T12:14:52;0.95;;;0.93;;
29210;SDS011;16250;49.932;10.980;2023-01-10T12:17:21;1.48;;;1.40;;
29210;SDS011;16250;49.932;10.980;2023-01-10T12:19:52;0.70;;;0.70;;
29210;SDS011;16250;49.932;10.980;2023-01-10T12:22:21;2.60;;;0.93;;
29210;SDS011;16250;49.932;10.980;2023-01-10T12:27:43;0.90;;;0.90;;
29210;SDS011;16250;49.932;10.980;2023-01-10T12:32:43;0.60;;;0.60;;
29210;SDS011;16250;49.932;10.980;2023-01-10T12:35:14;1.33;;;1.23;;
29210;SDS011;16250;49.932;10.980;2023-01-10T12:37:46;0.60;;;0.60;;
29210;SDS011;16250;49.932;10.980;2023-01-10T12:40:21;0.90;;;0.90;;
29210;SDS011;16250;49.932;10.980;2023-01-10T12:46:05;1.02;;;1.02;;
29210;SDS011;16250;49.932;10.980;2023-01-10T12:48:43;3.17;;;1.55;;
29210;SDS011;16250;49.932;10.980;2023-01-10T12:51:18;3.55;;;1.90;;
29210;SDS011;16250;49.932;10.980;2023-01-10T12:53:53;1.15;;;1.15;;
29210;SDS011;16250;49.932;10.980;2023-01-10T12:56:22;1.40;;;1.40;;
29210;SDS011;16250;49.932;10.980;2023-01-10T12:59:11;2.90;;;1.27;;
29210;SDS011;16250;49.932;10.980;2023-01-10T13:02:01;1.17;;;1.17;;
29210;SDS011;16250;49.932;10.980;2023-01-10T13:04:38;0.57;;;0.57;;
29210;SDS011;16250;49.932;10.980;2023-01-10T13:07:08;1.00;;;1.00;;
29210;SDS011;16250;49.932;10.980;2023-01-10T13:09:36;10.55;;;1.00;;
29210;SDS011;16250;49.932;10.980;2023-01-10T13:12:12;1.60;;;1.50;;
29210;SDS011;16250;49.932;10.980;2023-01-10T13:22:40;1.38;;;1.33;;
29210;SDS011;16250;49.932;10.980;2023-01-10T13:27:57;3.60;;;1.25;;
29210;SDS011;16250;49.932;10.980;2023-01-10T13:33:22;0.95;;;0.95;;
29210;SDS011;16250;49.932;10.980;2023-01-10T13:35:50;3.22;;;0.80;;
29210;SDS011;16250;49.932;10.980;2023-01-10T13:38:19;0.60;;;0.60;;
29210;SDS011;16250;49.932;10.980;2023-01-10T13:40:55;0.80;;;0.80;;
29210;SDS011;16250;49.932;10.980;2023-01-10T13:48:39;1.38;;;0.90;;
29210;SDS011;16250;49.932;10.980;2023-01-10T13:51:15;0.60;;;0.60;;
29210;SDS011;16250;49.932;10.980;2023-01-10T13:56:28;1.95;;;0.90;;
29210;SDS011;16250;49.932;10.980;2023-01-10T13:59:13;1.95;;;1.52;;
29210;SDS011;16250;49.932;10.980;2023-01-10T14:02:20;0.50;;;0.50;;
29210;SDS011;16250;49.932;10.980;2023-01-10T14:04:56;0.60;;;0.60;;
29210;SDS011;16250;49.932;10.980;2023-01-10T14:07:26;8.40;;;1.42;;
29210;SDS011;16250;49.932;10.980;2023-01-10T14:09:59;1.05;;;1.05;;
29210;SDS011;16250;49.932;10.980;2023-01-10T14:12:29;0.98;;;0.98;;
29210;SDS011;16250;49.932;10.980;2023-01-10T14:15:22;0.70;;;0.70;;
29210;SDS011;16250;49.932;10.980;2023-01-10T14:18:36;1.55;;;1.45;;
29210;SDS011;16250;49.932;10.980;2023-01-10T14:20:54;0.70;;;0.70;;
29210;SDS011;16250;49.932;10.980;2023-01-10T14:23:29;1.75;;;0.90;;
29210;SDS011;16250;49.932;10.980;2023-01-10T14:26:02;1.13;;;1.05;;
29210;SDS011;16250;49.932;10.980;2023-01-10T14:28:29;2.50;;;1.08;;
29210;SDS011;16250;49.932;10.980;2023-01-10T14:31:05;0.50;;;0.50;;
29210;SDS011;16250;49.932;10.980;2023-01-10T14:33:42;0.80;;;0.80;;
29210;SDS011;16250;49.932;10.980;2023-01-10T14:36:13;0.60;;;0.60;;
29210;SDS011;16250;49.932;10.980;2023-01-10T14:38:42;0.50;;;0.50;;
29210;SDS011;16250;49.932;10.980;2023-01-10T14:41:15;0.77;;;0.73;;
29210;SDS011;16250;49.932;10.980;2023-01-10T14:43:52;0.60;;;0.60;;
29210;SDS011;16250;49.932;10.980;2023-01-10T14:46:23;2.80;;;0.98;;
29210;SDS011;16250;49.932;10.980;2023-01-10T14:48:55;5.82;;;0.90;;
29210;SDS011;16250;49.932;10.980;2023-01-10T14:51:25;0.70;;;0.70;;
29210;SDS011;16250;49.932;10.980;2023-01-10T14:53:56;0.70;;;0.70;;
29210;SDS011;16250;49.932;10.980;2023-01-10T14:56:38;0.70;;;0.70;;
29210;SDS011;16250;49.932;10.980;2023-01-10T15:01:58;0.73;;;0.73;;
29210;SDS011;16250;49.932;10.980;2023-01-10T15:04:26;0.60;;;0.60;;
29210;SDS011;16250;49.932;10.980;2023-01-10T15:06:58;0.50;;;0.50;;
29210;SDS011;16250;49.932;10.980;2023-01-10T15:09:27;0.63;;;0.63;;
29210;SDS011;16250;49.932;10.980;2023-01-10T15:11:54;1.25;;;1.00;;
29210;SDS011;16250;49.932;10.980;2023-01-10T15:14:23;0.93;;;0.60;;
29210;SDS011;16250;49.932;10.980;2023-01-10T15:16:53;2.35;;;2.25;;
29210;SDS011;16250;49.932;10.980;2023-01-10T15:19:21;0.70;;;0.70;;
29210;SDS011;16250;49.932;10.980;2023-01-10T15:21:48;0.60;;;0.60;;
29210;SDS011;16250;49.932;10.980;2023-01-10T15:26:53;0.60;;;0.60;;
29210;SDS011;16250;49.932;10.980;2023-01-10T15:29:23;2.15;;;0.88;;
29210;SDS011;16250;49.932;10.980;2023-01-10T15:31:50;0.70;;;0.70;;
29210;SDS011;16250;49.932;10.980;2023-01-10T15:34:20;0.60;;;0.60;;
29210;SDS011;16250;49.932;10.980;2023-01-10T15:36:48;0.70;;;0.70;;
29210;SDS011;16250;49.932;10.980;2023-01-10T15:39:26;0.55;;;0.55;;
29210;SDS011;16250;49.932;10.980;2023-01-10T15:41:55;0.50;;;0.50;;
29210;SDS011;16250;49.932;10.980;2023-01-10T15:47:04;0.70;;;0.70;;
29210;SDS011;16250;49.932;10.980;2023-01-10T15:49:30;1.73;;;0.90;;
29210;SDS011;16250;49.932;10.980;2023-01-10T15:51:56;0.60;;;0.60;;
29210;SDS011;16250;49.932;10.980;2023-01-10T15:56:51;0.65;;;0.65;;
29210;SDS011;16250;49.932;10.980;2023-01-10T16:04:48;0.60;;;0.60;;
29210;SDS011;16250;49.932;10.980;2023-01-10T16:07:23;0.50;;;0.50;;
29210;SDS011;16250;49.932;10.980;2023-01-10T16:09:56;0.52;;;0.52;;
29210;SDS011;16250;49.932;10.980;2023-01-10T16:15:15;0.60;;;0.60;;
29210;SDS011;16250;49.932;10.980;2023-01-10T16:17:43;0.60;;;0.60;;
29210;SDS011;16250;49.932;10.980;2023-01-10T16:20:13;0.85;;;0.85;;
29210;SDS011;16250;49.932;10.980;2023-01-10T16:22:40;0.50;;;0.50;;
29210;SDS011;16250;49.932;10.980;2023-01-10T16:25:11;0.60;;;0.60;;
29210;SDS011;16250;49.932;10.980;2023-01-10T16:27:42;1.95;;;1.90;;
29210;SDS011;16250;49.932;10.980;2023-01-10T16:30:19;0.70;;;0.70;;
29210;SDS011;16250;49.932;10.980;2023-01-10T16:33:11;0.60;;;0.60;;
29210;SDS011;16250;49.932;10.980;2023-01-10T16:35:45;0.70;;;0.70;;
29210;SDS011;16250;49.932;10.980;2023-01-10T16:38:12;0.70;;;0.70;;
29210;SDS011;16250;49.932;10.980;2023-01-10T16:40:40;0.60;;;0.60;;
29210;SDS011;16250;49.932;10.980;2023-01-10T16:43:08;0.75;;;0.75;;
29210;SDS011;16250;49.932;10.980;2023-01-10T16:46:06;4.18;;;1.88;;
29210;SDS011;16250;49.932;10.980;2023-01-10T16:48:31;0.73;;;0.73;;